Terminal Aerodrome Forecast
Issued by NWS

Home | Current Version | Previous Version | Text Only | Print | Product List | Glossary On
Versions: 1 2 3 4 5 6 7 8 9 10 11 12 13 14
000
FTAK31 PAJN 210300 AAA
TAFAKT
TAF AMD
PAKT 210300Z 2103/2124 14011KT 4SM -RA BR SCT008 OVC015
     FM210800 14012G22KT 4SM RA BR SCT005 OVC015 WS020/16040KT
     FM211200 14012G22KT 2SM +RA BR SCT005 OVC012 WS020/16035KT
     FM212000 14014KT 5SM -RA BR SCT005 OVC018
      AMD LTD TO CLD VIS AND WIND 2106/2115=

USA.gov is the U.S. government's official web portal to all federal, state and local government web resources and services.